Terminal Aerodrome Forecast
Issued by NWS

Home | Current Version | Previous Version | Graphics & Text | Print | Product List | Glossary On
Versions: 1 2 3 4 5 6 7 8 9 10 11 12 13 14 15
000
FTUS43 KGRB 291100
TAFATW
TAF
KATW 291139Z 2912/3012 VRB03KT 6SM BR SCT006 BKN070
     FM291500 02012G19KT P6SM BKN010 OVC060
     FM291800 01010G17KT P6SM BKN010 OVC025
      TEMPO 2918/2922 5SM -SHRA BR
     FM300200 03014G20KT P6SM SCT007 OVC012
     FM300700 35009G17KT P6SM BKN015 OVC023=

USA.gov is the U.S. government's official web portal to all federal, state and local government web resources and services.